METAR AND TAF INFORMATION

METAR FOR LGMK
ADDS - METARS form results

(1002 UTC 04 February 2023)
Data provider http://aviationweather.gov/metar/data/
 
METAR text: LGMK 040950Z 22011KT 9999 FEW018TCU SCT025 12/05 Q1014
Conditions at: LGMK (MIKONOS ISLAND , GR) observed 0950 UTC 04 February 2023
Temperature: 12.0°C (54°F)
Dewpoint: 5.0°C (41°F) [RH = 62%]
Pressure (altimeter): 29.94 inches Hg (1014.0 mb)
Winds: from the SW (220 degrees) at 13 MPH (11 knots; 5.7 m/s)
Visibility: 6 or more miles (10+ km)
Ceiling: at least 12,000 feet AGL
Clouds: few clouds at 1800 feet AGL
scattered clouds at 2500 feet AGL
Weather: no significant weather observed at this time

METAR text: LGMK 040920Z 22008KT 9999 SCT025 12/04 Q1015
Conditions at: LGMK (MIKONOS ISLAND , GR) observed 0920 UTC 04 February 2023
Temperature: 12.0°C (54°F)
Dewpoint: 4.0°C (39°F) [RH = 58%]
Pressure (altimeter): 29.97 inches Hg (1015.0 mb)
Winds: from the SW (220 degrees) at 9 MPH (8 knots; 4.1 m/s)
Visibility: 6 or more miles (10+ km)
Ceiling: at least 12,000 feet AGL
Clouds: scattered clouds at 2500 feet AGL
Weather: no significant weather observed at this time

Forecast for: LGMK (MIKONOS ISLAND , GR)
Text: TAF LGMK 040800Z 0409/0418 24018KT 9999 SCT020
Forecast period: 0900 to 1000 UTC 04 February 2023
Forecast type: FROM: standard forecast or significant change
Winds: from the WSW (240 degrees) at 21 MPH (18 knots; 9.3 m/s)
Visibility: 6 or more miles (10+ km)
Ceiling: at least 12,000 feet AGL
Clouds: scattered clouds at 2000 feet AGL
Weather: no significant weather forecast for this period
Text: BECMG 0410/0412 30018KT
Forecast period: 1000 to 1800 UTC 04 February 2023
Forecast type: BECOMING: Conditions expected to become as follows by 1200 UTC 04 February 2023
Winds: from the WNW (300 degrees) at 21 MPH (18 knots; 9.3 m/s)
Visibility: 6 or more miles (10+ km)
Ceiling: at least 12,000 feet AGL
Clouds: scattered clouds at 2000 feet AGL
Weather: no significant weather forecast for this period
Text: PROB30 0412/0415 5000 RA FEW018TCU SCT020 BKN050
Forecast period: 1200 to 1500 UTC 04 February 2023
Forecast type: PROBABLE: 30 percent likelihood of the following during this time
Visibility: 3 miles (5 km)
Ceiling: 5000 feet AGL
Clouds: few clouds at 1800 feet AGL
scattered clouds at 2000 feet AGL
broken clouds at 5000 feet AGL
Weather: RA  (moderate rain)

 

AIRPORT MAP

 

RUNWAY INFORMATION

Runway 16 Runway length 6244 ft Runway width 98 ft
Runway elevation 395 ft Runway displaced threshold 0 ft Runway heading 160
Runway 34 Runway length 6244 ft Runway width 98 ft
Runway elevation 388 ft Runway displaced threshold 0 ft Runway heading 340

 

AIRPORT FREQUENCIES

Type A/G Name RDO Frequency 563.7 MHZ
Type APP Name APP Frequency 118.75 MHZ
Type TWR Name TWR Frequency 118.75 MHZ

 

AIRPORT NEAR NAVIGATION AIDS

Type VOR-DME Name Mikonos Frequency 110000 KHZ
Type NDB Name Mikonos Frequency 401 KHZ